Time;durP1;ratioP1;P1;durP2;ratioP2;P2;SDS_P1;SDS_P2;PMS_P1;PMS_P2;Temp;Humidity;BMP_temperature;BMP_pressure;BME280_temperature;BME280_humidity;BME280_pressure;Samples;Min_cycle;Max_cycle;Signal;HPM_P1;HPM_P2
2021/12/09 00:01:26;;;;;;;0.50;0.10;;;6.70;1.00;;;;;;4938912;28;20451;-68
2021/12/09 00:03:57;;;;;;;0.50;0.10;;;6.70;1.00;;;;;;4938388;28;20483;-67
2021/12/09 00:06:28;;;;;;;0.50;0.10;;;6.70;1.00;;;;;;4937976;28;20490;-67
2021/12/09 00:09:00;;;;;;;0.53;0.10;;;6.70;1.00;;;;;;4935332;28;20489;-66
2021/12/09 00:11:29;;;;;;;0.50;0.10;;;6.70;1.00;;;;;;4937068;29;20444;-67
2021/12/09 00:13:58;;;;;;;1.53;1.43;;;6.70;1.00;;;;;;4937431;29;20451;-66
2021/12/09 00:16:26;;;;;;;0.50;0.10;;;6.80;1.00;;;;;;4935882;29;20446;-68
2021/12/09 00:18:53;;;;;;;0.50;0.10;;;6.80;1.00;;;;;;4935498;29;20488;-67
2021/12/09 00:21:21;;;;;;;0.50;0.10;;;6.80;1.00;;;;;;4936440;28;20462;-68
2021/12/09 00:23:49;;;;;;;0.50;0.10;;;6.80;1.00;;;;;;4937420;28;20485;-67
2021/12/09 00:26:19;;;;;;;0.50;0.10;;;6.70;1.00;;;;;;4938419;28;20454;-67
2021/12/09 00:28:46;;;;;;;2.30;1.70;;;6.70;1.00;;;;;;4939831;28;20493;-67
2021/12/09 00:31:15;;;;;;;0.50;0.10;;;6.70;1.00;;;;;;4937289;29;20481;-67
2021/12/09 00:33:45;;;;;;;0.50;0.10;;;6.70;1.00;;;;;;4929156;28;20471;-67
2021/12/09 00:36:16;;;;;;;0.60;0.30;;;;;;;;;;4933161;28;20820;-66
2021/12/09 00:38:44;;;;;;;0.50;0.10;;;6.50;1.00;;;;;;4933469;28;20463;-66
2021/12/09 00:41:14;;;;;;;0.50;0.10;;;6.50;1.00;;;;;;4932772;28;20830;-66
2021/12/09 00:43:44;;;;;;;0.50;0.10;;;6.50;1.00;;;;;;4932819;28;20447;-66
2021/12/09 00:46:12;;;;;;;0.50;0.20;;;6.50;1.00;;;;;;4932428;29;20852;-66
2021/12/09 00:48:44;;;;;;;0.50;0.10;;;6.60;1.00;;;;;;4933064;28;20501;-67
2021/12/09 00:51:12;;;;;;;0.50;0.10;;;6.60;1.00;;;;;;4932985;28;20957;-67
2021/12/09 00:53:40;;;;;;;0.50;0.10;;;6.60;1.00;;;;;;4933477;28;20474;-66
2021/12/09 00:56:10;;;;;;;0.50;0.10;;;6.50;1.00;;;;;;4933471;28;20458;-67
2021/12/09 00:58:38;;;;;;;0.50;0.10;;;6.60;1.00;;;;;;4935549;28;20477;-67
2021/12/09 01:01:09;;;;;;;0.50;0.10;;;6.60;1.00;;;;;;4935004;28;20469;-68
2021/12/09 01:03:40;;;;;;;0.50;0.10;;;6.60;1.00;;;;;;4935539;29;20450;-68
2021/12/09 01:06:08;;;;;;;2.30;1.20;;;6.60;1.00;;;;;;4935802;28;20447;-66
2021/12/09 01:08:41;;;;;;;0.50;0.10;;;6.60;1.00;;;;;;4935378;28;20479;-66
2021/12/09 01:11:10;;;;;;;0.50;0.10;;;6.50;1.00;;;;;;4935805;28;20451;-69
2021/12/09 01:13:39;;;;;;;0.50;0.10;;;6.50;1.00;;;;;;4933910;28;20456;-65
2021/12/09 01:16:09;;;;;;;1.20;1.17;;;6.60;1.00;;;;;;4937444;28;20454;-67
2021/12/09 01:18:38;;;;;;;0.50;0.10;;;6.60;1.00;;;;;;4936615;28;20477;-66
2021/12/09 01:21:08;;;;;;;0.50;0.10;;;6.60;1.00;;;;;;4936401;28;20465;-66
2021/12/09 01:23:35;;;;;;;0.50;0.10;;;6.60;1.00;;;;;;4936562;28;20477;-68
2021/12/09 01:26:06;;;;;;;0.50;0.10;;;6.60;1.00;;;;;;4937056;28;20464;-66
2021/12/09 01:28:43;;;;;;;0.50;0.10;;;6.60;1.00;;;;;;4935935;29;20493;-67
2021/12/09 01:31:19;;;;;;;0.50;0.10;;;6.50;1.00;;;;;;4917241;28;20450;-67
2021/12/09 01:33:47;;;;;;;0.50;0.10;;;6.50;1.00;;;;;;4935194;29;20458;-68
2021/12/09 01:36:16;;;;;;;0.50;0.10;;;6.50;1.00;;;;;;4935282;28;20789;-65
2021/12/09 01:38:44;;;;;;;0.50;0.10;;;6.50;1.00;;;;;;4933035;28;20488;-68
2021/12/09 01:41:11;;;;;;;0.50;0.10;;;6.50;1.00;;;;;;4933355;28;20450;-67
2021/12/09 01:43:39;;;;;;;0.50;0.10;;;6.50;1.00;;;;;;4933910;28;20458;-66
2021/12/09 01:46:10;;;;;;;0.50;0.10;;;6.50;1.00;;;;;;4932378;28;20851;-67
2021/12/09 01:48:40;;;;;;;0.50;0.20;;;6.50;1.00;;;;;;4932239;28;20454;-67
2021/12/09 01:51:09;;;;;;;0.50;0.10;;;6.50;1.00;;;;;;4931431;28;20520;-67
2021/12/09 01:53:38;;;;;;;0.50;0.10;;;6.50;1.00;;;;;;4931662;28;20495;-67
2021/12/09 01:56:09;;;;;;;0.50;0.10;;;6.50;1.00;;;;;;4931635;28;20459;-66
2021/12/09 01:58:38;;;;;;;0.50;0.10;;;6.50;1.00;;;;;;4931781;28;20463;-67
2021/12/09 02:01:07;;;;;;;0.50;0.10;;;6.50;1.00;;;;;;4931638;28;20442;-67
2021/12/09 02:03:35;;;;;;;0.50;0.10;;;6.50;1.00;;;;;;4934545;28;20843;-66
2021/12/09 02:06:06;;;;;;;0.77;0.63;;;6.40;1.00;;;;;;4934776;28;20986;-66
2021/12/09 02:08:33;;;;;;;1.90;1.80;;;6.30;1.00;;;;;;4935429;29;21000;-66
2021/12/09 02:11:02;;;;;;;1.30;1.30;;;6.30;1.00;;;;;;4934918;28;20492;-66
2021/12/09 02:13:30;;;;;;;0.50;0.10;;;6.30;1.00;;;;;;4933615;28;20976;-66
2021/12/09 02:15:58;;;;;;;0.50;0.10;;;6.30;1.00;;;;;;4934678;28;20453;-66
2021/12/09 02:18:26;;;;;;;0.50;0.10;;;6.20;1.00;;;;;;4934910;28;20536;-66
2021/12/09 02:21:07;;;;;;;0.50;0.10;;;6.20;1.00;;;;;;4936405;28;20504;-66
2021/12/09 02:23:35;;;;;;;0.50;0.10;;;6.20;1.00;;;;;;4936670;28;20444;-66
2021/12/09 02:26:04;;;;;;;0.50;0.10;;;6.20;1.00;;;;;;4934989;29;20456;-67
2021/12/09 02:28:32;;;;;;;0.50;0.10;;;6.20;1.00;;;;;;4934390;28;20558;-66
2021/12/09 02:31:01;;;;;;;0.50;0.10;;;6.10;1.00;;;;;;4934538;28;20493;-67
2021/12/09 02:33:29;;;;;;;0.50;0.10;;;6.10;1.00;;;;;;4934761;28;20460;-66
2021/12/09 02:35:57;;;;;;;0.50;0.20;;;6.10;1.00;;;;;;4934336;28;20458;-66
2021/12/09 02:38:27;;;;;;;0.50;0.10;;;6.10;1.00;;;;;;4934515;28;20464;-67
2021/12/09 02:40:56;;;;;;;0.50;0.10;;;6.00;1.00;;;;;;4934154;28;20460;-67
2021/12/09 02:43:29;;;;;;;0.50;0.10;;;6.10;1.00;;;;;;4934924;28;20978;-66
2021/12/09 02:45:59;;;;;;;0.50;0.10;;;6.00;1.00;;;;;;4935000;28;20465;-67
2021/12/09 02:48:28;;;;;;;0.50;0.10;;;6.00;1.00;;;;;;4934955;28;20466;-66
2021/12/09 02:50:56;;;;;;;0.50;0.10;;;6.00;1.00;;;;;;4951644;28;20477;-66
2021/12/09 02:53:25;;;;;;;0.50;0.10;;;6.10;1.00;;;;;;4934685;28;20451;-68
2021/12/09 02:55:53;;;;;;;4.47;4.10;;;6.00;1.00;;;;;;4934723;28;20455;-66
2021/12/09 02:58:21;;;;;;;0.50;0.10;;;5.90;1.00;;;;;;4936616;28;20485;-66
2021/12/09 03:00:56;;;;;;;0.50;0.10;;;5.90;1.00;;;;;;4936643;28;20453;-65
2021/12/09 03:03:25;;;;;;;0.50;0.10;;;5.90;1.00;;;;;;4935165;28;20450;-67
2021/12/09 03:05:55;;;;;;;0.50;0.10;;;5.90;1.00;;;;;;4938292;28;20549;-67
2021/12/09 03:08:33;;;;;;;0.50;0.10;;;5.90;1.00;;;;;;4937372;28;20477;-66
2021/12/09 03:11:08;;;;;;;5.50;5.30;;;5.90;1.00;;;;;;4936644;28;20493;-67
2021/12/09 03:13:37;;;;;;;0.50;0.10;;;5.80;1.00;;;;;;4934206;28;20828;-67
2021/12/09 03:16:06;;;;;;;0.50;0.10;;;5.80;1.00;;;;;;4935324;28;20459;-66
2021/12/09 03:18:42;;;;;;;0.50;0.10;;;5.80;1.00;;;;;;4935204;28;20482;-67
2021/12/09 03:21:17;;;;;;;0.50;0.10;;;5.80;1.00;;;;;;4934124;28;20444;-67
2021/12/09 03:23:45;;;;;;;0.50;0.10;;;5.70;1.00;;;;;;4934157;28;20459;-68
2021/12/09 03:26:15;;;;;;;0.50;0.10;;;5.70;1.00;;;;;;4933406;28;20453;-67
2021/12/09 03:28:44;;;;;;;0.50;0.30;;;5.70;1.00;;;;;;4933617;28;20472;-67
2021/12/09 03:31:12;;;;;;;0.50;0.10;;;5.70;1.00;;;;;;4933487;28;20473;-67
2021/12/09 03:33:40;;;;;;;0.50;0.10;;;5.70;1.00;;;;;;4933927;28;20563;-67
2021/12/09 03:36:08;;;;;;;0.50;0.10;;;5.60;1.00;;;;;;4933865;28;20461;-67
2021/12/09 03:38:36;;;;;;;0.50;0.10;;;5.60;1.00;;;;;;4933917;28;20473;-66
2021/12/09 03:41:05;;;;;;;0.50;0.10;;;5.60;1.00;;;;;;4934162;28;21000;-68
2021/12/09 03:43:35;;;;;;;0.50;0.10;;;5.60;1.00;;;;;;4933921;28;20542;-66
2021/12/09 03:46:04;;;;;;;0.50;0.10;;;5.60;1.00;;;;;;4933927;28;20460;-66
2021/12/09 03:48:33;;;;;;;0.50;0.10;;;;;;;;;;4934021;28;20519;-66
2021/12/09 03:51:01;;;;;;;0.50;0.10;;;5.60;1.00;;;;;;4933753;28;20492;-66
2021/12/09 03:53:29;;;;;;;0.50;0.10;;;5.70;1.00;;;;;;4933786;28;20823;-65
2021/12/09 03:55:58;;;;;;;0.50;0.10;;;5.70;1.00;;;;;;4933008;28;20670;-67
2021/12/09 03:58:25;;;;;;;0.50;0.10;;;5.60;1.00;;;;;;4933459;29;21148;-65
2021/12/09 04:00:55;;;;;;;0.50;0.10;;;5.60;1.00;;;;;;4933283;28;21034;-66
2021/12/09 04:03:23;;;;;;;0.50;0.10;;;5.60;1.00;;;;;;4934280;28;20493;-66
2021/12/09 04:05:51;;;;;;;0.50;0.10;;;5.60;1.00;;;;;;4933429;28;20455;-66
2021/12/09 04:08:21;;;;;;;2.20;2.00;;;5.60;1.00;;;;;;4933223;28;20504;-66
2021/12/09 04:10:50;;;;;;;0.50;0.10;;;5.50;1.00;;;;;;4933257;29;20506;-67
2021/12/09 04:13:18;;;;;;;0.50;0.30;;;5.50;1.00;;;;;;4933385;28;21186;-66
2021/12/09 04:15:46;;;;;;;0.50;0.10;;;5.50;1.00;;;;;;4933742;28;20453;-66
2021/12/09 04:18:15;;;;;;;0.50;0.10;;;5.50;1.00;;;;;;4945652;23;20480;-70
2021/12/09 04:20:44;;;;;;;0.50;0.10;;;5.50;1.00;;;;;;4913215;28;20466;-69
2021/12/09 04:23:12;;;;;;;0.50;0.10;;;5.50;1.00;;;;;;4895518;28;20887;-70
2021/12/09 04:25:40;;;;;;;0.50;0.10;;;5.50;1.00;;;;;;4903767;29;20457;-69
2021/12/09 04:28:08;;;;;;;0.50;0.10;;;5.50;1.00;;;;;;4920618;28;20462;-72
2021/12/09 04:30:36;;;;;;;0.50;0.10;;;5.50;1.00;;;;;;4934641;28;20486;-70
2021/12/09 04:33:04;;;;;;;0.50;0.10;;;5.60;1.00;;;;;;4968468;28;20518;-71
2021/12/09 04:35:34;;;;;;;0.50;0.10;;;5.60;1.00;;;;;;5004746;28;20650;-68
2021/12/09 04:38:02;;;;;;;0.50;0.10;;;5.60;1.00;;;;;;4954784;28;20992;-69
2021/12/09 04:40:29;;;;;;;0.50;0.10;;;5.60;1.00;;;;;;4950741;28;20450;-69
2021/12/09 04:42:57;;;;;;;0.50;0.10;;;5.60;1.00;;;;;;4978223;28;20476;-71
2021/12/09 04:45:27;;;;;;;0.50;0.10;;;5.60;1.00;;;;;;5014383;28;20475;-70
2021/12/09 04:47:55;;;;;;;0.50;0.10;;;5.60;1.00;;;;;;5013123;28;20449;-72
2021/12/09 04:50:24;;;;;;;0.50;0.10;;;5.60;1.00;;;;;;5012515;28;20466;-69
2021/12/09 04:52:54;;;;;;;0.50;0.10;;;5.60;1.00;;;;;;4940938;28;20457;-69
2021/12/09 04:55:22;;;;;;;0.50;0.10;;;5.60;1.00;;;;;;4913899;29;20532;-70
2021/12/09 04:57:50;;;;;;;0.50;0.10;;;5.60;1.00;;;;;;4914259;28;20454;-70
2021/12/09 05:00:20;;;;;;;0.50;0.10;;;5.60;1.00;;;;;;4913298;29;20488;-70
2021/12/09 05:03:02;;;;;;;0.50;0.10;;;5.60;1.00;;;;;;4912935;28;20517;-69
2021/12/09 05:05:35;;;;;;;0.50;0.10;;;5.60;1.00;;;;;;4913550;29;20449;-71
2021/12/09 05:08:06;;;;;;;0.50;0.10;;;5.60;1.00;;;;;;4913230;28;20445;-69
2021/12/09 05:10:52;;;;;;;0.50;0.10;;;5.60;1.00;;;;;;4912964;29;20541;-69
2021/12/09 05:13:20;;;;;;;0.50;0.10;;;5.60;1.00;;;;;;4912680;28;20442;-72
2021/12/09 05:15:49;;;;;;;0.50;0.10;;;5.60;1.00;;;;;;4910959;28;20483;-71
2021/12/09 05:18:18;;;;;;;0.50;0.10;;;5.60;1.00;;;;;;4971276;28;20929;-71
2021/12/09 05:20:46;;;;;;;0.50;0.10;;;5.60;1.00;;;;;;5012183;28;20446;-70
2021/12/09 05:23:17;;;;;;;0.50;0.10;;;5.60;1.00;;;;;;4930664;28;20455;-71
2021/12/09 05:25:45;;;;;;;0.50;0.10;;;5.60;1.00;;;;;;4953346;28;20959;-71
2021/12/09 05:28:16;;;;;;;0.50;0.10;;;5.60;1.00;;;;;;4969797;28;20441;-71
2021/12/09 05:33:27;;;;;;;0.50;0.10;;;5.60;1.00;;;;;;4951189;28;20465;-71
2021/12/09 05:35:56;;;;;;;0.50;0.10;;;5.50;1.00;;;;;;4960992;28;20450;-72
2021/12/09 05:38:25;;;;;;;0.63;0.50;;;5.30;1.00;;;;;;5015773;28;20469;-70
2021/12/09 05:40:54;;;;;;;0.50;0.10;;;5.30;1.00;;;;;;5016209;28;20427;-71
2021/12/09 05:43:22;;;;;;;0.50;0.10;;;5.30;1.00;;;;;;4931374;28;20456;-71
2021/12/09 05:45:50;;;;;;;0.50;0.17;;;5.30;1.00;;;;;;4916233;28;20446;-70
2021/12/09 05:48:19;;;;;;;0.50;0.10;;;5.20;1.00;;;;;;4916746;29;20524;-72
2021/12/09 05:50:47;;;;;;;0.50;0.10;;;5.30;1.00;;;;;;4954331;28;20456;-71
2021/12/09 05:53:16;;;;;;;0.50;0.10;;;5.30;1.00;;;;;;4946230;28;20484;-70
2021/12/09 05:55:45;;;;;;;0.50;0.10;;;5.30;1.00;;;;;;5016717;28;20519;-70
2021/12/09 05:58:14;;;;;;;0.50;0.10;;;5.20;1.00;;;;;;4997050;28;20468;-71
2021/12/09 06:00:48;;;;;;;0.50;0.10;;;5.20;1.00;;;;;;4916845;29;20472;-70
2021/12/09 06:03:19;;;;;;;0.50;0.10;;;5.20;1.00;;;;;;4917056;29;20490;-70
2021/12/09 06:05:48;;;;;;;0.50;0.10;;;5.30;1.00;;;;;;4958525;28;20438;-73
2021/12/09 06:08:17;;;;;;;4.10;2.20;;;5.20;1.00;;;;;;4979627;28;20467;-71
2021/12/09 06:10:47;;;;;;;0.50;0.10;;;5.20;1.00;;;;;;5016696;28;20944;-71
2021/12/09 06:13:16;;;;;;;0.50;0.10;;;5.20;1.00;;;;;;4945422;28;20485;-70
2021/12/09 06:15:44;;;;;;;0.50;0.10;;;5.20;1.00;;;;;;4957644;28;20454;-71
2021/12/09 06:18:12;;;;;;;0.50;0.10;;;5.10;1.00;;;;;;4914419;28;20464;-70
2021/12/09 06:20:40;;;;;;;0.50;0.10;;;5.10;1.00;;;;;;4917278;28;20449;-70
2021/12/09 06:23:08;;;;;;;0.50;0.10;;;5.00;1.00;;;;;;4918113;28;20947;-70
2021/12/09 06:25:36;;;;;;;0.50;0.10;;;5.00;1.00;;;;;;4917123;29;20450;-69
2021/12/09 06:28:05;;;;;;;0.50;0.10;;;5.00;1.00;;;;;;4923410;28;20512;-70
2021/12/09 06:30:33;;;;;;;0.60;0.50;;;5.00;1.00;;;;;;4915872;28;20561;-70
2021/12/09 06:33:02;;;;;;;0.50;0.10;;;5.00;1.00;;;;;;4979952;28;20487;-69
2021/12/09 06:35:29;;;;;;;0.50;0.10;;;4.80;1.00;;;;;;4989829;28;20461;-69
2021/12/09 06:37:58;;;;;;;0.70;0.33;;;4.80;1.00;;;;;;4933656;28;20449;-69
2021/12/09 06:40:26;;;;;;;2.00;1.90;;;4.70;1.00;;;;;;4923419;28;20481;-71
2021/12/09 06:42:54;;;;;;;0.50;0.10;;;4.60;1.00;;;;;;4922985;28;20462;-71
2021/12/09 06:45:24;;;;;;;0.60;0.20;;;4.50;1.00;;;;;;4954351;28;20947;-71
2021/12/09 06:47:53;;;;;;;0.50;0.10;;;4.50;1.00;;;;;;4956861;28;20613;-71
2021/12/09 06:50:23;;;;;;;0.50;0.20;;;4.60;1.00;;;;;;4914053;29;20473;-71
2021/12/09 06:52:51;;;;;;;0.50;0.10;;;4.50;1.00;;;;;;4960105;28;20960;-70
2021/12/09 06:55:20;;;;;;;0.50;0.10;;;4.50;1.00;;;;;;5015960;28;20459;-72
2021/12/09 06:57:49;;;;;;;0.80;0.60;;;4.40;1.00;;;;;;5014660;28;20528;-71
2021/12/09 07:00:19;;;;;;;0.50;0.10;;;4.40;1.00;;;;;;5000225;28;20845;-71
2021/12/09 07:02:49;;;;;;;0.50;0.10;;;4.40;1.00;;;;;;4915536;29;20444;-70
2021/12/09 07:05:20;;;;;;;0.50;0.10;;;4.40;1.00;;;;;;4915609;29;20459;-70
2021/12/09 07:07:49;;;;;;;0.50;0.10;;;4.50;1.00;;;;;;4914898;28;20445;-70
2021/12/09 07:10:18;;;;;;;0.50;0.10;;;4.50;1.00;;;;;;4915450;29;20482;-71
2021/12/09 07:12:47;;;;;;;0.50;0.20;;;4.60;1.00;;;;;;4916433;29;20577;-70
2021/12/09 07:15:15;;;;;;;0.50;0.10;;;5.30;1.00;;;;;;4916314;28;20839;-70
2021/12/09 07:17:45;;;;;;;0.50;0.20;;;4.60;1.00;;;;;;4917485;29;20458;-71
2021/12/09 07:20:18;;;;;;;0.50;0.10;;;4.60;1.00;;;;;;4915516;29;20482;-71
2021/12/09 07:22:48;;;;;;;0.50;0.10;;;4.70;1.00;;;;;;4916614;29;20513;-71
2021/12/09 07:25:17;;;;;;;0.50;0.10;;;4.70;1.00;;;;;;4917301;29;20469;-71
2021/12/09 07:27:45;;;;;;;0.50;0.10;;;4.60;1.00;;;;;;4915826;29;20472;-71
2021/12/09 07:30:16;;;;;;;0.50;0.10;;;4.60;1.00;;;;;;4916303;29;20469;-71
2021/12/09 07:32:44;;;;;;;0.50;0.10;;;4.60;1.00;;;;;;4915612;28;20508;-70
2021/12/09 07:35:15;;;;;;;0.50;0.10;;;4.60;1.00;;;;;;4916754;29;20447;-70
2021/12/09 07:37:44;;;;;;;0.50;0.20;;;4.60;1.00;;;;;;4916809;29;20429;-71
2021/12/09 07:40:15;;;;;;;0.50;0.10;;;4.60;1.00;;;;;;4916219;28;20504;-72
2021/12/09 07:42:44;;;;;;;0.50;0.10;;;4.60;1.00;;;;;;4917566;28;20472;-71
2021/12/09 07:45:13;;;;;;;0.50;0.20;;;4.60;1.00;;;;;;4918215;28;20561;-71
2021/12/09 07:47:43;;;;;;;0.50;0.10;;;4.60;1.00;;;;;;4917262;28;20454;-71
2021/12/09 07:50:14;;;;;;;0.60;0.20;;;4.60;1.00;;;;;;4916730;28;21039;-70
2021/12/09 07:52:45;;;;;;;0.50;0.10;;;4.50;1.00;;;;;;4917735;29;20490;-70
2021/12/09 07:55:13;;;;;;;0.50;0.10;;;4.50;1.00;;;;;;4919013;28;20456;-70
2021/12/09 07:57:42;;;;;;;0.50;0.10;;;4.40;1.00;;;;;;4917215;28;20473;-70
2021/12/09 08:00:13;;;;;;;0.73;0.73;;;4.30;1.00;;;;;;4914931;28;20485;-69
2021/12/09 08:02:41;;;;;;;0.50;0.10;;;4.40;1.00;;;;;;4915982;28;20545;-70
2021/12/09 08:05:10;;;;;;;0.70;0.60;;;4.40;1.00;;;;;;4915482;28;20461;-71
2021/12/09 08:07:41;;;;;;;0.83;0.80;;;4.40;1.00;;;;;;4915425;29;20475;-71
2021/12/09 08:10:16;;;;;;;0.50;0.10;;;4.30;1.00;;;;;;4915076;28;20494;-69
2021/12/09 08:12:44;;;;;;;0.50;0.20;;;4.20;1.00;;;;;;4916601;29;20950;-71
2021/12/09 08:15:27;;;;;;;0.60;0.33;;;4.10;1.00;;;;;;4917134;28;20440;-69
2021/12/09 08:18:24;;;;;;;9.43;8.80;;;4.00;1.00;;;;;;4916504;28;20454;-70
2021/12/09 08:20:54;;;;;;;1.20;0.67;;;3.90;1.00;;;;;;4916677;29;20476;-70
2021/12/09 08:23:22;;;;;;;0.50;0.10;;;4.00;1.00;;;;;;4915996;28;20437;-70
2021/12/09 08:25:52;;;;;;;0.60;0.43;;;3.90;1.00;;;;;;4918315;29;20461;-70
2021/12/09 08:28:20;;;;;;;0.50;0.10;;;4.00;1.00;;;;;;4917275;29;20472;-71
2021/12/09 08:30:50;;;;;;;0.60;0.33;;;3.90;1.00;;;;;;4916581;29;20488;-71
2021/12/09 08:33:20;;;;;;;1.47;1.17;;;5.20;1.00;;;;;;4917356;29;20998;-72
2021/12/09 08:35:49;;;;;;;2.70;2.50;;;3.90;1.00;;;;;;4917112;28;20948;-71
2021/12/09 08:38:17;;;;;;;1.10;0.97;;;3.80;1.00;;;;;;4916265;29;20545;-71
2021/12/09 08:40:46;;;;;;;6.00;4.37;;;3.80;1.00;;;;;;4916764;29;20471;-72
2021/12/09 08:43:16;;;;;;;1.27;0.63;;;3.80;1.00;;;;;;4918440;29;20633;-70
2021/12/09 08:45:45;;;;;;;0.50;0.10;;;3.90;1.00;;;;;;4918127;28;20445;-70
2021/12/09 08:48:14;;;;;;;0.60;0.47;;;3.90;1.00;;;;;;4916460;29;20863;-71
2021/12/09 08:50:44;;;;;;;0.73;0.37;;;3.90;1.00;;;;;;4917808;29;20456;-70
2021/12/09 08:53:14;;;;;;;0.93;0.53;;;3.80;1.00;;;;;;4916140;29;20994;-70
2021/12/09 08:55:43;;;;;;;6.27;1.80;;;3.80;1.00;;;;;;4917905;29;20449;-71
2021/12/09 08:58:13;;;;;;;1.67;1.27;;;3.70;1.00;;;;;;4916382;28;20550;-70
2021/12/09 09:00:43;;;;;;;0.87;0.70;;;3.70;1.00;;;;;;4916877;29;20455;-70
2021/12/09 09:03:12;;;;;;;0.50;0.20;;;3.70;1.00;;;;;;4917264;28;20444;-70
2021/12/09 09:05:40;;;;;;;0.50;0.10;;;3.70;1.00;;;;;;4915860;29;20990;-70
2021/12/09 09:08:08;;;;;;;0.60;0.30;;;3.70;1.00;;;;;;4915709;29;20554;-70
2021/12/09 09:10:40;;;;;;;3.00;1.50;;;3.80;1.00;;;;;;4914199;28;20458;-71
2021/12/09 09:13:08;;;;;;;2.67;2.40;;;3.70;1.00;;;;;;4912483;28;20485;-70
2021/12/09 09:15:36;;;;;;;3.27;1.97;;;3.60;1.00;;;;;;4916708;28;20446;-71
2021/12/09 09:18:06;;;;;;;0.80;0.50;;;3.30;1.00;;;;;;4916794;28;20518;-71
2021/12/09 09:20:39;;;;;;;3.77;2.30;;;3.30;1.00;;;;;;4916237;28;20942;-71
2021/12/09 09:23:10;;;;;;;1.50;1.20;;;3.30;1.00;;;;;;4917716;28;21000;-70
2021/12/09 09:25:39;;;;;;;12.93;1.53;;;3.30;1.00;;;;;;4919597;28;20444;-71
2021/12/09 09:28:08;;;;;;;5.50;1.57;;;3.20;1.00;;;;;;4918986;28;20448;-69
2021/12/09 09:30:38;;;;;;;1.57;1.47;;;3.20;1.00;;;;;;4919401;28;20981;-71
2021/12/09 09:33:11;;;;;;;0.70;0.30;;;3.20;1.00;;;;;;4917425;29;20455;-71
2021/12/09 09:35:41;;;;;;;0.60;0.50;;;3.30;1.00;;;;;;4918098;28;20495;-70
2021/12/09 09:38:10;;;;;;;5.03;2.13;;;3.40;1.00;;;;;;4921672;29;20448;-70
2021/12/09 09:40:48;;;;;;;0.90;0.40;;;3.40;1.00;;;;;;4915261;28;20813;-71
2021/12/09 09:43:28;;;;;;;0.50;0.10;;;3.50;1.00;;;;;;4914221;29;20733;-70
2021/12/09 09:46:03;;;;;;;0.97;0.87;;;3.50;1.00;;;;;;4916256;28;20461;-71
2021/12/09 09:48:33;;;;;;;1.33;0.50;;;3.60;1.00;;;;;;4922297;29;20820;-70
2021/12/09 09:51:02;;;;;;;0.73;0.73;;;3.70;1.00;;;;;;4914274;29;20491;-72
2021/12/09 09:53:30;;;;;;;1.27;0.70;;;3.70;1.00;;;;;;4914862;29;20483;-71
2021/12/09 09:55:58;;;;;;;3.20;0.77;;;3.70;1.00;;;;;;4915171;29;20454;-71
2021/12/09 09:58:28;;;;;;;2.00;1.53;;;3.60;1.00;;;;;;4913235;28;20549;-71
2021/12/09 10:00:56;;;;;;;2.93;1.97;;;3.60;1.00;;;;;;4913288;28;20455;-70
2021/12/09 10:03:29;;;;;;;0.50;0.10;;;3.60;1.00;;;;;;4912943;29;20455;-71
2021/12/09 10:06:02;;;;;;;2.60;2.10;;;3.60;1.00;;;;;;4913630;29;20477;-70
2021/12/09 10:08:33;;;;;;;0.80;0.80;;;3.60;1.00;;;;;;4912497;29;20524;-70
2021/12/09 10:11:02;;;;;;;3.50;2.03;;;3.50;1.00;;;;;;4912038;29;20456;-70
2021/12/09 10:13:32;;;;;;;1.37;1.20;;;3.50;1.00;;;;;;4912768;29;20809;-70
2021/12/09 10:16:04;;;;;;;3.43;1.30;;;3.50;1.00;;;;;;4912559;28;20541;-70
2021/12/09 10:18:36;;;;;;;5.13;2.00;;;3.50;1.00;;;;;;4912795;29;20476;-71
2021/12/09 10:21:07;;;;;;;2.60;1.80;;;3.60;1.00;;;;;;4912032;29;20455;-71
2021/12/09 10:23:40;;;;;;;0.60;0.50;;;3.60;1.00;;;;;;4913816;28;20961;-70
2021/12/09 10:26:21;;;;;;;0.50;0.20;;;3.60;1.00;;;;;;4915627;28;20448;-71
2021/12/09 10:28:52;;;;;;;1.77;1.50;;;3.60;1.00;;;;;;4915794;28;20481;-70
2021/12/09 10:31:25;;;;;;;0.97;0.87;;;3.60;1.00;;;;;;4918223;29;20469;-70
2021/12/09 10:34:17;;;;;;;2.27;1.00;;;3.60;1.00;;;;;;4920552;29;20487;-70
2021/12/09 10:36:52;;;;;;;7.30;1.90;;;3.60;1.00;;;;;;4916647;29;20461;-71
2021/12/09 10:39:25;;;;;;;2.10;1.90;;;3.60;1.00;;;;;;4915376;29;20464;-71
2021/12/09 10:41:54;;;;;;;2.93;2.73;;;3.60;1.00;;;;;;4915325;29;20468;-71
2021/12/09 10:44:40;;;;;;;0.60;0.30;;;3.70;1.00;;;;;;4914965;28;20449;-70
2021/12/09 10:47:13;;;;;;;0.80;0.80;;;3.70;1.00;;;;;;4915456;29;20458;-71
2021/12/09 10:49:47;;;;;;;8.60;2.37;;;3.70;1.00;;;;;;4914725;29;20475;-74
2021/12/09 10:52:38;;;;;;;3.50;3.20;;;3.80;1.00;;;;;;4915631;29;20447;-71
2021/12/09 10:55:25;;;;;;;0.60;0.50;;;3.80;1.00;;;;;;4916789;29;20543;-71
2021/12/09 10:57:56;;;;;;;0.77;0.70;;;3.80;1.00;;;;;;4917291;29;20445;-70
2021/12/09 11:00:28;;;;;;;5.53;3.93;;;3.80;1.00;;;;;;4914876;28;20474;-71
2021/12/09 11:03:18;;;;;;;0.77;0.63;;;3.90;1.00;;;;;;4916007;28;20442;-71
2021/12/09 11:05:51;;;;;;;3.37;1.70;;;3.90;1.00;;;;;;4914818;29;20942;-71
2021/12/09 11:08:36;;;;;;;0.50;0.13;;;4.00;1.00;;;;;;4915291;28;20464;-71
2021/12/09 11:11:09;;;;;;;1.83;1.70;;;4.10;1.00;;;;;;4915677;28;20982;-70
2021/12/09 11:13:47;;;;;;;0.83;0.40;;;4.20;1.00;;;;;;4908198;28;20829;-71
2021/12/09 11:16:24;;;;;;;0.50;0.10;;;4.30;1.00;;;;;;4896921;29;20521;-71
2021/12/09 11:18:56;;;;;;;1.03;0.53;;;4.40;1.00;;;;;;4901087;28;20482;-70
2021/12/09 11:21:30;;;;;;;4.17;1.97;;;4.40;1.00;;;;;;4913225;28;20476;-71
2021/12/09 11:24:03;;;;;;;0.70;0.43;;;4.40;1.00;;;;;;4915396;29;20441;-71
2021/12/09 11:26:51;;;;;;;0.70;0.60;;;4.30;1.00;;;;;;4916330;29;20456;-72
2021/12/09 11:29:23;;;;;;;6.40;1.23;;;4.20;1.00;;;;;;4915607;29;20466;-71
2021/12/09 11:32:00;;;;;;;1.10;0.87;;;4.30;1.00;;;;;;4914827;29;20457;-70
2021/12/09 11:34:35;;;;;;;1.20;1.03;;;4.30;1.00;;;;;;4913236;29;20489;-72
2021/12/09 11:37:09;;;;;;;0.90;0.90;;;4.30;1.00;;;;;;4914091;28;20500;-72
2021/12/09 11:39:39;;;;;;;0.50;0.10;;;4.40;1.00;;;;;;4915007;29;20492;-72
2021/12/09 11:42:19;;;;;;;0.90;0.70;;;4.40;1.00;;;;;;4915365;28;20479;-72
2021/12/09 11:45:05;;;;;;;0.50;0.20;;;4.50;1.00;;;;;;4910920;29;20456;-71
2021/12/09 11:47:33;;;;;;;2.37;2.00;;;4.50;1.00;;;;;;4914919;29;20450;-72
2021/12/09 11:50:13;;;;;;;3.53;1.33;;;4.50;1.00;;;;;;4914294;29;20962;-72
2021/12/09 11:52:43;;;;;;;0.50;0.10;;;4.50;1.00;;;;;;4914183;29;20454;-72
2021/12/09 11:55:15;;;;;;;4.20;3.90;;;4.40;1.00;;;;;;4914081;29;20487;-72
2021/12/09 11:57:47;;;;;;;0.50;0.20;;;4.40;1.00;;;;;;4914242;29;20441;-72
2021/12/09 12:12:42;;;;;;;0.50;0.10;;;4.80;1.00;;;;;;4914468;29;20452;-69
2021/12/09 12:15:41;;;;;;;0.50;0.20;;;4.90;1.00;;;;;;4895669;29;20918;-74
2021/12/09 12:21:05;;;;;;;0.50;0.20;;;5.00;1.00;;;;;;4924690;28;20454;-72
2021/12/09 12:23:44;;;;;;;0.80;0.57;;;4.90;1.00;;;;;;4913938;29;20462;-68
2021/12/09 12:26:52;;;;;;;2.50;1.00;;;5.00;1.00;;;;;;4913792;29;20809;-69
2021/12/09 12:29:43;;;;;;;3.10;1.03;;;5.00;1.00;;;;;;4914098;29;20471;-71
2021/12/09 12:35:42;;;;;;;1.63;0.80;;;4.90;1.00;;;;;;4902179;29;20497;-69
2021/12/09 12:38:31;;;;;;;2.50;1.40;;;6.20;1.00;;;;;;4915365;29;20457;-70
2021/12/09 12:41:06;;;;;;;0.50;0.10;;;4.90;1.00;;;;;;4919295;29;20449;-69
2021/12/09 12:43:39;;;;;;;1.60;1.27;;;4.80;1.00;;;;;;4916543;29;20454;-69
2021/12/09 12:46:15;;;;;;;0.50;0.20;;;4.80;1.00;;;;;;4914286;29;20940;-70
2021/12/09 12:48:58;;;;;;;0.67;0.23;;;4.80;1.00;;;;;;4913815;29;20479;-70
2021/12/09 12:51:31;;;;;;;0.77;0.70;;;4.80;1.00;;;;;;4921757;28;20536;-68
2021/12/09 12:54:01;;;;;;;1.27;0.60;;;4.80;1.00;;;;;;4914029;29;20427;-70
2021/12/09 12:56:32;;;;;;;0.70;0.30;;;4.80;1.00;;;;;;4914011;29;20489;-68
2021/12/09 12:59:29;;;;;;;1.07;0.60;;;4.70;1.00;;;;;;4913335;28;21042;-69
2021/12/09 13:05:21;;;;;;;4.43;0.60;;;4.70;1.00;;;;;;4919603;29;20916;-70
2021/12/09 13:08:11;;;;;;;0.50;0.10;;;4.70;1.00;;;;;;4923321;29;20473;-70
2021/12/09 13:10:50;;;;;;;0.70;0.33;;;4.60;1.00;;;;;;4920327;28;20456;-69
2021/12/09 13:13:29;;;;;;;0.93;0.93;;;4.70;1.00;;;;;;4909351;28;20492;-70
2021/12/09 13:16:13;;;;;;;0.50;0.10;;;4.60;1.00;;;;;;4895295;29;20473;-70
2021/12/09 13:19:08;;;;;;;1.47;0.70;;;4.60;1.00;;;;;;4908864;29;20493;-70
2021/12/09 13:21:58;;;;;;;0.50;0.20;;;4.60;1.00;;;;;;4914118;29;20452;-70
2021/12/09 13:24:34;;;;;;;1.63;0.83;;;4.70;1.00;;;;;;4915744;29;20434;-70
2021/12/09 13:30:39;;;;;;;3.07;0.57;;;4.90;1.00;;;;;;4916160;29;20469;-69
2021/12/09 13:33:28;;;;;;;1.07;0.97;;;4.90;1.00;;;;;;4914886;29;20458;-69
2021/12/09 13:47:35;;;;;;;0.70;0.57;;;5.00;1.00;;;;;;4914780;29;20442;-69
2021/12/09 13:55:37;;;;;;;3.13;1.47;;;5.10;1.00;;;;;;4914928;28;20536;-70
2021/12/09 13:58:07;;;;;;;2.13;0.80;;;5.20;1.00;;;;;;4916687;29;20456;-70
2021/12/09 14:00:39;;;;;;;0.50;0.10;;;5.20;1.00;;;;;;4918569;28;20454;-70
2021/12/09 14:03:11;;;;;;;2.60;1.07;;;5.10;1.00;;;;;;4916574;29;21031;-73
2021/12/09 14:05:48;;;;;;;0.50;0.10;;;5.20;1.00;;;;;;4918573;28;20446;-71
2021/12/09 14:08:26;;;;;;;0.50;0.10;;;5.30;1.00;;;;;;4917463;28;20477;-71
2021/12/09 14:11:00;;;;;;;0.50;0.10;;;5.30;1.00;;;;;;4916826;28;20542;-70
2021/12/09 14:13:32;;;;;;;0.50;0.20;;;5.40;1.00;;;;;;4917900;28;20456;-68
2021/12/09 14:16:08;;;;;;;0.70;0.40;;;5.40;1.00;;;;;;4918259;29;20505;-70